sensor_id;sensor_type;location;lat;lon;timestamp;pressure;altitude;pressure_sealevel;temperature;humidity
15817;BME280;8009;50.070;8.232;2022-10-20T00:01:23;100420.53;;;12.01;74.78
15817;BME280;8009;50.070;8.232;2022-10-20T00:03:53;100420.31;;;12.04;74.64
15817;BME280;8009;50.070;8.232;2022-10-20T00:06:23;100419.44;;;11.79;75.01
15817;BME280;8009;50.070;8.232;2022-10-20T00:08:53;100409.47;;;11.80;74.59
15817;BME280;8009;50.070;8.232;2022-10-20T00:11:23;100407.94;;;11.88;74.97
15817;BME280;8009;50.070;8.232;2022-10-20T00:13:56;100404.47;;;11.86;74.14
15817;BME280;8009;50.070;8.232;2022-10-20T00:16:25;100404.72;;;11.83;73.47
15817;BME280;8009;50.070;8.232;2022-10-20T00:18:54;100403.59;;;11.86;74.15
15817;BME280;8009;50.070;8.232;2022-10-20T00:21:24;100400.22;;;11.82;73.95
15817;BME280;8009;50.070;8.232;2022-10-20T00:23:53;100402.72;;;11.98;74.03
15817;BME280;8009;50.070;8.232;2022-10-20T00:26:23;100396.78;;;11.80;73.93
15817;BME280;8009;50.070;8.232;2022-10-20T00:28:55;100396.13;;;11.89;73.53
15817;BME280;8009;50.070;8.232;2022-10-20T00:31:24;100387.91;;;11.91;73.80
15817;BME280;8009;50.070;8.232;2022-10-20T00:33:53;100369.75;;;11.80;73.96
15817;BME280;8009;50.070;8.232;2022-10-20T00:36:22;100378.78;;;11.68;74.18
15817;BME280;8009;50.070;8.232;2022-10-20T00:38:50;100373.50;;;11.90;76.97
15817;BME280;8009;50.070;8.232;2022-10-20T00:41:23;100373.97;;;11.84;73.11
15817;BME280;8009;50.070;8.232;2022-10-20T00:43:55;100369.91;;;11.66;73.95
15817;BME280;8009;50.070;8.232;2022-10-20T00:46:27;100365.88;;;11.71;74.16
15817;BME280;8009;50.070;8.232;2022-10-20T00:49:00;100361.56;;;11.69;73.77
15817;BME280;8009;50.070;8.232;2022-10-20T00:51:31;100366.56;;;11.62;74.18
15817;BME280;8009;50.070;8.232;2022-10-20T00:54:05;100358.56;;;11.61;73.82
15817;BME280;8009;50.070;8.232;2022-10-20T00:56:36;100360.41;;;11.60;73.61
15817;BME280;8009;50.070;8.232;2022-10-20T00:59:10;100345.13;;;11.59;73.51
15817;BME280;8009;50.070;8.232;2022-10-20T01:01:40;100351.25;;;11.50;73.78
15817;BME280;8009;50.070;8.232;2022-10-20T01:04:10;100347.19;;;11.68;72.81
15817;BME280;8009;50.070;8.232;2022-10-20T01:06:38;100343.63;;;11.55;73.28
15817;BME280;8009;50.070;8.232;2022-10-20T01:09:07;100325.31;;;11.71;73.83
15817;BME280;8009;50.070;8.232;2022-10-20T01:11:43;100320.78;;;11.59;73.91
15817;BME280;8009;50.070;8.232;2022-10-20T01:14:25;100323.69;;;11.45;73.67
15817;BME280;8009;50.070;8.232;2022-10-20T01:17:00;100326.72;;;11.40;73.85
15817;BME280;8009;50.070;8.232;2022-10-20T01:20:14;100335.16;;;11.49;73.44
15817;BME280;8009;50.070;8.232;2022-10-20T01:23:07;100337.22;;;11.45;73.50
15817;BME280;8009;50.070;8.232;2022-10-20T01:25:49;100341.00;;;11.42;73.36
15817;BME280;8009;50.070;8.232;2022-10-20T01:28:26;100343.28;;;11.36;73.32
15817;BME280;8009;50.070;8.232;2022-10-20T01:31:01;100344.69;;;11.41;73.07
15817;BME280;8009;50.070;8.232;2022-10-20T01:33:34;100338.97;;;11.33;74.29
15817;BME280;8009;50.070;8.232;2022-10-20T01:36:12;100319.72;;;11.25;73.81
15817;BME280;8009;50.070;8.232;2022-10-20T01:38:51;100316.81;;;11.28;73.24
15817;BME280;8009;50.070;8.232;2022-10-20T01:41:26;100321.16;;;11.18;74.12
15817;BME280;8009;50.070;8.232;2022-10-20T01:44:02;100323.63;;;11.21;74.00
15817;BME280;8009;50.070;8.232;2022-10-20T01:46:32;100326.69;;;11.16;74.10
15817;BME280;8009;50.070;8.232;2022-10-20T01:49:03;100323.25;;;11.14;73.64
15817;BME280;8009;50.070;8.232;2022-10-20T01:51:33;100327.53;;;11.17;74.18
15817;BME280;8009;50.070;8.232;2022-10-20T01:54:01;100325.59;;;11.19;74.04
15817;BME280;8009;50.070;8.232;2022-10-20T01:56:35;100323.00;;;11.17;73.54
15817;BME280;8009;50.070;8.232;2022-10-20T01:59:26;100311.88;;;11.09;74.32
15817;BME280;8009;50.070;8.232;2022-10-20T02:02:10;100312.09;;;11.06;73.73
15817;BME280;8009;50.070;8.232;2022-10-20T02:04:56;100305.06;;;11.16;74.17
15817;BME280;8009;50.070;8.232;2022-10-20T02:07:29;100293.81;;;11.10;73.48
15817;BME280;8009;50.070;8.232;2022-10-20T02:10:04;100282.81;;;11.13;73.18
15817;BME280;8009;50.070;8.232;2022-10-20T02:12:39;100284.06;;;11.20;73.70
15817;BME280;8009;50.070;8.232;2022-10-20T02:15:16;100285.91;;;11.19;72.96
15817;BME280;8009;50.070;8.232;2022-10-20T02:17:48;100283.78;;;11.12;72.88
15817;BME280;8009;50.070;8.232;2022-10-20T02:20:19;100270.38;;;11.10;72.83
15817;BME280;8009;50.070;8.232;2022-10-20T02:22:48;100263.16;;;11.11;73.39
15817;BME280;8009;50.070;8.232;2022-10-20T02:25:20;100254.41;;;11.07;72.47
15817;BME280;8009;50.070;8.232;2022-10-20T02:27:49;100263.81;;;11.02;74.33
15817;BME280;8009;50.070;8.232;2022-10-20T02:30:21;100251.16;;;11.02;74.07
15817;BME280;8009;50.070;8.232;2022-10-20T02:32:51;100243.53;;;10.96;73.51
15817;BME280;8009;50.070;8.232;2022-10-20T02:35:21;100254.19;;;10.97;74.51
15817;BME280;8009;50.070;8.232;2022-10-20T02:37:50;100248.16;;;10.94;73.38
15817;BME280;8009;50.070;8.232;2022-10-20T02:40:18;100239.63;;;10.87;74.64
15817;BME280;8009;50.070;8.232;2022-10-20T02:42:46;100250.00;;;10.93;74.05
15817;BME280;8009;50.070;8.232;2022-10-20T02:45:15;100249.22;;;11.04;73.18
15817;BME280;8009;50.070;8.232;2022-10-20T02:47:46;100242.31;;;11.00;73.03
15817;BME280;8009;50.070;8.232;2022-10-20T02:50:14;100252.91;;;11.03;73.57
15817;BME280;8009;50.070;8.232;2022-10-20T02:52:43;100261.19;;;11.13;73.10
15817;BME280;8009;50.070;8.232;2022-10-20T02:55:11;100262.00;;;11.26;75.93
15817;BME280;8009;50.070;8.232;2022-10-20T02:57:39;100258.63;;;10.98;73.90
15817;BME280;8009;50.070;8.232;2022-10-20T03:00:09;100264.09;;;11.10;72.76
15817;BME280;8009;50.070;8.232;2022-10-20T03:02:38;100266.25;;;11.17;73.05
15817;BME280;8009;50.070;8.232;2022-10-20T03:05:09;100266.50;;;11.02;73.55
15817;BME280;8009;50.070;8.232;2022-10-20T03:07:37;100252.66;;;11.06;73.18
15817;BME280;8009;50.070;8.232;2022-10-20T03:10:06;100236.06;;;11.00;72.51
15817;BME280;8009;50.070;8.232;2022-10-20T03:12:34;100230.41;;;11.03;72.30
15817;BME280;8009;50.070;8.232;2022-10-20T03:15:03;100235.59;;;11.06;73.22
15817;BME280;8009;50.070;8.232;2022-10-20T03:17:32;100239.16;;;11.06;72.59
15817;BME280;8009;50.070;8.232;2022-10-20T03:20:00;100245.19;;;11.10;73.18
15817;BME280;8009;50.070;8.232;2022-10-20T03:22:31;100256.63;;;11.13;73.07
15817;BME280;8009;50.070;8.232;2022-10-20T03:25:00;100260.97;;;11.16;72.24
15817;BME280;8009;50.070;8.232;2022-10-20T03:27:28;100246.00;;;10.99;72.42
15817;BME280;8009;50.070;8.232;2022-10-20T03:29:56;100239.53;;;10.89;72.85
15817;BME280;8009;50.070;8.232;2022-10-20T03:32:24;100245.59;;;10.92;72.66
15817;BME280;8009;50.070;8.232;2022-10-20T03:34:53;100238.41;;;11.04;72.41
15817;BME280;8009;50.070;8.232;2022-10-20T03:37:21;100246.22;;;10.96;72.23
15817;BME280;8009;50.070;8.232;2022-10-20T03:39:52;100233.56;;;10.96;73.25
15817;BME280;8009;50.070;8.232;2022-10-20T03:42:20;100222.47;;;10.88;73.24
15817;BME280;8009;50.070;8.232;2022-10-20T03:44:48;100213.91;;;10.94;73.50
15817;BME280;8009;50.070;8.232;2022-10-20T03:47:17;100217.44;;;10.95;73.48
15817;BME280;8009;50.070;8.232;2022-10-20T03:49:45;100227.31;;;10.96;73.55
15817;BME280;8009;50.070;8.232;2022-10-20T03:52:13;100219.44;;;10.93;73.33
15817;BME280;8009;50.070;8.232;2022-10-20T03:54:42;100212.31;;;10.92;73.88
15817;BME280;8009;50.070;8.232;2022-10-20T03:57:12;100202.91;;;10.85;73.84
15817;BME280;8009;50.070;8.232;2022-10-20T03:59:41;100187.88;;;10.93;73.34
15817;BME280;8009;50.070;8.232;2022-10-20T04:02:21;100193.41;;;10.92;73.90
15817;BME280;8009;50.070;8.232;2022-10-20T04:04:54;100192.97;;;11.09;74.04
15817;BME280;8009;50.070;8.232;2022-10-20T04:07:22;100189.59;;;11.18;73.44
15817;BME280;8009;50.070;8.232;2022-10-20T04:09:51;100186.84;;;11.07;74.85
15817;BME280;8009;50.070;8.232;2022-10-20T04:12:23;100194.75;;;10.97;74.71
15817;BME280;8009;50.070;8.232;2022-10-20T04:14:51;100201.66;;;11.02;75.13
15817;BME280;8009;50.070;8.232;2022-10-20T04:17:20;100198.44;;;10.96;74.68
15817;BME280;8009;50.070;8.232;2022-10-20T04:19:48;100190.75;;;11.03;75.24
15817;BME280;8009;50.070;8.232;2022-10-20T04:22:16;100195.53;;;11.00;74.34
15817;BME280;8009;50.070;8.232;2022-10-20T04:24:44;100199.59;;;11.05;74.53
15817;BME280;8009;50.070;8.232;2022-10-20T04:27:14;100191.50;;;11.05;74.78
15817;BME280;8009;50.070;8.232;2022-10-20T04:29:45;100188.72;;;10.94;73.88
15817;BME280;8009;50.070;8.232;2022-10-20T04:32:14;100183.22;;;10.95;74.17
15817;BME280;8009;50.070;8.232;2022-10-20T04:34:42;100183.09;;;10.97;73.55
15817;BME280;8009;50.070;8.232;2022-10-20T04:37:10;100182.34;;;10.95;73.93
15817;BME280;8009;50.070;8.232;2022-10-20T04:39:38;100173.78;;;11.01;73.74
15817;BME280;8009;50.070;8.232;2022-10-20T04:42:07;100173.16;;;10.97;73.73
15817;BME280;8009;50.070;8.232;2022-10-20T04:44:35;100162.50;;;10.83;74.16
15817;BME280;8009;50.070;8.232;2022-10-20T04:47:06;100161.94;;;10.91;73.49
15817;BME280;8009;50.070;8.232;2022-10-20T04:49:34;100151.38;;;10.88;73.42
15817;BME280;8009;50.070;8.232;2022-10-20T04:52:03;100142.16;;;10.90;73.45
15817;BME280;8009;50.070;8.232;2022-10-20T04:54:32;100134.06;;;10.90;73.50
15817;BME280;8009;50.070;8.232;2022-10-20T04:57:00;100128.22;;;10.72;73.86
15817;BME280;8009;50.070;8.232;2022-10-20T04:59:31;100125.31;;;10.87;73.94
15817;BME280;8009;50.070;8.232;2022-10-20T05:01:59;100127.66;;;10.67;74.16
15817;BME280;8009;50.070;8.232;2022-10-20T05:04:30;100129.06;;;10.73;74.23
15817;BME280;8009;50.070;8.232;2022-10-20T05:06:58;100126.44;;;10.84;74.03
15817;BME280;8009;50.070;8.232;2022-10-20T05:09:27;100124.03;;;10.80;74.67
15817;BME280;8009;50.070;8.232;2022-10-20T05:11:55;100115.34;;;10.76;73.98
15817;BME280;8009;50.070;8.232;2022-10-20T05:14:24;100124.69;;;10.83;74.14
15817;BME280;8009;50.070;8.232;2022-10-20T05:16:52;100117.97;;;10.89;73.98
15817;BME280;8009;50.070;8.232;2022-10-20T05:19:21;100124.19;;;10.78;74.45
15817;BME280;8009;50.070;8.232;2022-10-20T05:21:51;100105.78;;;10.83;74.68
15817;BME280;8009;50.070;8.232;2022-10-20T05:24:21;100107.53;;;10.84;74.38
15817;BME280;8009;50.070;8.232;2022-10-20T05:26:49;100104.00;;;10.71;74.30
15817;BME280;8009;50.070;8.232;2022-10-20T05:29:17;100098.59;;;10.71;74.71
15817;BME280;8009;50.070;8.232;2022-10-20T05:31:46;100094.19;;;10.70;74.99
15817;BME280;8009;50.070;8.232;2022-10-20T05:34:14;100094.06;;;10.71;75.09
15817;BME280;8009;50.070;8.232;2022-10-20T05:36:42;100098.03;;;10.79;74.96
15817;BME280;8009;50.070;8.232;2022-10-20T05:39:13;100099.34;;;10.73;74.83
15817;BME280;8009;50.070;8.232;2022-10-20T05:41:41;100093.66;;;10.65;75.65
15817;BME280;8009;50.070;8.232;2022-10-20T05:44:10;100091.34;;;10.71;75.19
15817;BME280;8009;50.070;8.232;2022-10-20T05:46:39;100098.72;;;10.69;75.01
15817;BME280;8009;50.070;8.232;2022-10-20T05:49:12;100098.38;;;10.74;75.57
15817;BME280;8009;50.070;8.232;2022-10-20T05:51:43;100096.66;;;10.73;74.93
15817;BME280;8009;50.070;8.232;2022-10-20T05:54:15;100103.78;;;10.74;75.41
15817;BME280;8009;50.070;8.232;2022-10-20T05:56:43;100104.97;;;10.70;75.06
15817;BME280;8009;50.070;8.232;2022-10-20T05:59:12;100099.06;;;10.65;75.63
15817;BME280;8009;50.070;8.232;2022-10-20T06:01:40;100096.81;;;10.59;76.14
15817;BME280;8009;50.070;8.232;2022-10-20T06:04:15;100090.00;;;10.66;75.93
15817;BME280;8009;50.070;8.232;2022-10-20T06:06:44;100092.13;;;10.73;75.55
15817;BME280;8009;50.070;8.232;2022-10-20T06:09:16;100113.31;;;10.67;75.33
15817;BME280;8009;50.070;8.232;2022-10-20T06:11:45;100116.06;;;10.54;75.71
15817;BME280;8009;50.070;8.232;2022-10-20T06:14:16;100102.22;;;10.59;76.14
15817;BME280;8009;50.070;8.232;2022-10-20T06:16:48;100099.34;;;10.73;75.76
15817;BME280;8009;50.070;8.232;2022-10-20T06:19:17;100104.78;;;10.60;75.93
15817;BME280;8009;50.070;8.232;2022-10-20T06:21:45;100099.38;;;10.60;75.59
15817;BME280;8009;50.070;8.232;2022-10-20T06:24:17;100106.75;;;10.58;76.47
15817;BME280;8009;50.070;8.232;2022-10-20T06:26:45;100121.88;;;10.61;75.34
15817;BME280;8009;50.070;8.232;2022-10-20T06:29:16;100133.53;;;10.61;76.07
15817;BME280;8009;50.070;8.232;2022-10-20T06:31:46;100124.31;;;10.64;75.73
15817;BME280;8009;50.070;8.232;2022-10-20T06:34:17;100132.69;;;10.61;75.97
15817;BME280;8009;50.070;8.232;2022-10-20T06:36:46;100148.63;;;10.64;75.71
15817;BME280;8009;50.070;8.232;2022-10-20T06:39:19;100166.31;;;10.68;75.99
15817;BME280;8009;50.070;8.232;2022-10-20T06:41:50;100171.81;;;10.79;75.49
15817;BME280;8009;50.070;8.232;2022-10-20T06:44:19;100147.63;;;10.78;75.67
15817;BME280;8009;50.070;8.232;2022-10-20T06:46:48;100138.13;;;10.72;76.14
15817;BME280;8009;50.070;8.232;2022-10-20T06:49:18;100149.34;;;10.79;76.50
15817;BME280;8009;50.070;8.232;2022-10-20T06:51:46;100168.53;;;10.63;76.00
15817;BME280;8009;50.070;8.232;2022-10-20T06:54:17;100167.91;;;10.83;75.70
15817;BME280;8009;50.070;8.232;2022-10-20T06:56:46;100159.13;;;10.68;76.03
15817;BME280;8009;50.070;8.232;2022-10-20T06:59:14;100165.31;;;10.58;76.41
15817;BME280;8009;50.070;8.232;2022-10-20T07:01:42;100159.44;;;10.64;77.13
15817;BME280;8009;50.070;8.232;2022-10-20T07:04:13;100159.97;;;10.69;76.29
15817;BME280;8009;50.070;8.232;2022-10-20T07:06:44;100172.19;;;10.62;76.46
15817;BME280;8009;50.070;8.232;2022-10-20T07:09:15;100170.78;;;10.93;78.66
15817;BME280;8009;50.070;8.232;2022-10-20T07:11:49;100168.25;;;11.03;75.73
15817;BME280;8009;50.070;8.232;2022-10-20T07:14:17;100157.41;;;10.91;75.39
15817;BME280;8009;50.070;8.232;2022-10-20T07:16:46;100155.59;;;10.79;76.13
15817;BME280;8009;50.070;8.232;2022-10-20T07:19:14;100150.19;;;10.79;76.80
15817;BME280;8009;50.070;8.232;2022-10-20T07:21:43;100160.50;;;10.74;76.67
15817;BME280;8009;50.070;8.232;2022-10-20T07:24:11;100154.88;;;10.77;76.99
15817;BME280;8009;50.070;8.232;2022-10-20T07:26:41;100143.06;;;10.78;76.79
15817;BME280;8009;50.070;8.232;2022-10-20T07:29:16;100146.84;;;10.88;76.73
15817;BME280;8009;50.070;8.232;2022-10-20T07:31:46;100147.50;;;10.79;76.25
15817;BME280;8009;50.070;8.232;2022-10-20T07:34:16;100130.56;;;10.77;76.94
15817;BME280;8009;50.070;8.232;2022-10-20T07:36:47;100133.41;;;10.87;76.76
15817;BME280;8009;50.070;8.232;2022-10-20T07:39:26;100122.91;;;11.19;76.10
15817;BME280;8009;50.070;8.232;2022-10-20T07:41:57;100123.31;;;11.02;76.49
15817;BME280;8009;50.070;8.232;2022-10-20T07:44:28;100123.53;;;10.98;76.75
15817;BME280;8009;50.070;8.232;2022-10-20T07:46:57;100126.59;;;10.94;76.67
15817;BME280;8009;50.070;8.232;2022-10-20T07:49:28;100130.25;;;11.17;76.45
15817;BME280;8009;50.070;8.232;2022-10-20T07:51:56;100134.66;;;11.07;76.03
15817;BME280;8009;50.070;8.232;2022-10-20T07:54:25;100145.59;;;11.16;76.31
15817;BME280;8009;50.070;8.232;2022-10-20T07:56:53;100133.25;;;11.36;76.50
15817;BME280;8009;50.070;8.232;2022-10-20T07:59:21;100140.69;;;11.45;75.88
15817;BME280;8009;50.070;8.232;2022-10-20T08:01:53;100150.34;;;11.37;76.10
15817;BME280;8009;50.070;8.232;2022-10-20T08:04:21;100147.72;;;11.24;76.46
15817;BME280;8009;50.070;8.232;2022-10-20T08:06:49;100144.34;;;11.09;76.63
15817;BME280;8009;50.070;8.232;2022-10-20T08:09:18;100140.19;;;11.16;76.94
15817;BME280;8009;50.070;8.232;2022-10-20T08:11:47;100130.25;;;11.17;76.40
15817;BME280;8009;50.070;8.232;2022-10-20T08:14:16;100125.50;;;11.32;76.52
15817;BME280;8009;50.070;8.232;2022-10-20T08:16:44;100131.28;;;11.27;76.37
15817;BME280;8009;50.070;8.232;2022-10-20T08:19:15;100127.69;;;11.15;76.73
15817;BME280;8009;50.070;8.232;2022-10-20T08:21:43;100131.31;;;11.03;77.06
15817;BME280;8009;50.070;8.232;2022-10-20T08:24:12;100139.50;;;11.02;77.05
15817;BME280;8009;50.070;8.232;2022-10-20T08:26:40;100116.97;;;11.14;76.63
15817;BME280;8009;50.070;8.232;2022-10-20T08:29:09;100124.13;;;11.15;76.87
15817;BME280;8009;50.070;8.232;2022-10-20T08:31:37;100123.91;;;11.29;76.30
15817;BME280;8009;50.070;8.232;2022-10-20T08:34:06;100116.72;;;11.17;76.88
15817;BME280;8009;50.070;8.232;2022-10-20T08:36:38;100112.59;;;11.24;76.88
15817;BME280;8009;50.070;8.232;2022-10-20T08:39:06;100117.13;;;11.23;76.79
15817;BME280;8009;50.070;8.232;2022-10-20T08:41:39;100104.69;;;11.45;76.14
15817;BME280;8009;50.070;8.232;2022-10-20T08:44:16;100098.28;;;11.46;76.96
15817;BME280;8009;50.070;8.232;2022-10-20T08:46:46;100094.72;;;11.45;76.45
15817;BME280;8009;50.070;8.232;2022-10-20T08:49:19;100095.22;;;11.51;76.72
15817;BME280;8009;50.070;8.232;2022-10-20T08:51:51;100081.09;;;11.58;76.36
15817;BME280;8009;50.070;8.232;2022-10-20T08:54:19;100094.06;;;11.88;75.84
15817;BME280;8009;50.070;8.232;2022-10-20T08:56:48;100114.72;;;12.01;75.76
15817;BME280;8009;50.070;8.232;2022-10-20T08:59:24;100096.16;;;11.96;75.15
15817;BME280;8009;50.070;8.232;2022-10-20T09:01:53;100104.28;;;12.07;75.33
15817;BME280;8009;50.070;8.232;2022-10-20T09:04:25;100102.91;;;12.13;74.42
15817;BME280;8009;50.070;8.232;2022-10-20T09:06:59;100112.88;;;12.24;75.13
15817;BME280;8009;50.070;8.232;2022-10-20T09:09:31;100106.25;;;12.05;75.30
15817;BME280;8009;50.070;8.232;2022-10-20T09:12:03;100102.34;;;11.98;76.25
15817;BME280;8009;50.070;8.232;2022-10-20T09:14:36;100096.63;;;12.24;75.22
15817;BME280;8009;50.070;8.232;2022-10-20T09:17:05;100096.03;;;12.31;76.33
15817;BME280;8009;50.070;8.232;2022-10-20T09:19:42;100089.91;;;12.07;75.86
15817;BME280;8009;50.070;8.232;2022-10-20T09:22:15;100093.47;;;12.18;75.50
15817;BME280;8009;50.070;8.232;2022-10-20T09:24:45;100108.09;;;12.16;76.02
15817;BME280;8009;50.070;8.232;2022-10-20T09:27:22;100111.75;;;12.60;76.20
15817;BME280;8009;50.070;8.232;2022-10-20T09:29:51;100109.09;;;12.04;76.21
15817;BME280;8009;50.070;8.232;2022-10-20T09:32:31;100107.22;;;12.27;75.86
15817;BME280;8009;50.070;8.232;2022-10-20T09:35:12;100103.03;;;12.45;75.08
15817;BME280;8009;50.070;8.232;2022-10-20T09:37:51;100097.84;;;12.53;75.15
15817;BME280;8009;50.070;8.232;2022-10-20T09:40:24;100105.34;;;12.61;75.94
15817;BME280;8009;50.070;8.232;2022-10-20T09:42:55;100101.13;;;12.68;75.40
15817;BME280;8009;50.070;8.232;2022-10-20T09:45:25;100108.31;;;12.24;76.31
15817;BME280;8009;50.070;8.232;2022-10-20T09:48:00;100104.38;;;12.39;75.97
15817;BME280;8009;50.070;8.232;2022-10-20T09:50:32;100107.22;;;12.27;76.46
15817;BME280;8009;50.070;8.232;2022-10-20T09:53:13;100097.78;;;11.99;77.36
15817;BME280;8009;50.070;8.232;2022-10-20T09:55:45;100089.75;;;12.08;77.61
15817;BME280;8009;50.070;8.232;2022-10-20T09:58:26;100086.06;;;12.09;77.31
15817;BME280;8009;50.070;8.232;2022-10-20T10:00:58;100106.84;;;12.20;77.10
15817;BME280;8009;50.070;8.232;2022-10-20T10:03:27;100102.06;;;12.24;77.32
15817;BME280;8009;50.070;8.232;2022-10-20T10:05:57;100097.84;;;12.53;76.38
15817;BME280;8009;50.070;8.232;2022-10-20T10:08:42;100092.06;;;12.35;76.81
15817;BME280;8009;50.070;8.232;2022-10-20T10:11:14;100093.25;;;12.65;75.69
15817;BME280;8009;50.070;8.232;2022-10-20T10:13:45;100087.59;;;12.68;76.20
15817;BME280;8009;50.070;8.232;2022-10-20T10:16:15;100093.22;;;12.76;75.95
15817;BME280;8009;50.070;8.232;2022-10-20T10:18:53;100096.06;;;12.75;76.51
15817;BME280;8009;50.070;8.232;2022-10-20T10:21:21;100083.84;;;12.80;76.20
15817;BME280;8009;50.070;8.232;2022-10-20T10:23:54;100068.47;;;12.69;76.00
15817;BME280;8009;50.070;8.232;2022-10-20T10:26:41;100067.41;;;12.61;77.00
15817;BME280;8009;50.070;8.232;2022-10-20T10:29:24;100067.16;;;12.64;77.01
15817;BME280;8009;50.070;8.232;2022-10-20T10:31:58;100072.06;;;12.59;76.55
15817;BME280;8009;50.070;8.232;2022-10-20T10:35:01;100062.25;;;12.47;77.15
15817;BME280;8009;50.070;8.232;2022-10-20T10:37:32;100060.31;;;12.49;77.18
15817;BME280;8009;50.070;8.232;2022-10-20T10:40:12;100064.25;;;12.44;77.27
15817;BME280;8009;50.070;8.232;2022-10-20T10:43:02;100047.00;;;12.46;76.93
15817;BME280;8009;50.070;8.232;2022-10-20T10:45:44;100039.84;;;12.56;76.81
15817;BME280;8009;50.070;8.232;2022-10-20T10:48:31;100043.25;;;12.69;76.72
15817;BME280;8009;50.070;8.232;2022-10-20T10:51:04;100044.34;;;12.66;76.79
15817;BME280;8009;50.070;8.232;2022-10-20T10:53:45;100031.72;;;12.88;76.21
15817;BME280;8009;50.070;8.232;2022-10-20T10:56:29;100014.59;;;12.87;75.96
15817;BME280;8009;50.070;8.232;2022-10-20T10:59:04;100024.09;;;12.82;76.34
15817;BME280;8009;50.070;8.232;2022-10-20T11:01:53;100020.56;;;12.70;76.53
15817;BME280;8009;50.070;8.232;2022-10-20T11:04:39;100002.34;;;12.72;77.04
15817;BME280;8009;50.070;8.232;2022-10-20T11:07:26;99999.28;;;12.65;76.84
15817;BME280;8009;50.070;8.232;2022-10-20T11:10:03;99989.53;;;12.74;76.41
15817;BME280;8009;50.070;8.232;2022-10-20T11:12:53;100000.09;;;12.77;76.77
15817;BME280;8009;50.070;8.232;2022-10-20T11:15:38;100004.06;;;12.73;76.84
15817;BME280;8009;50.070;8.232;2022-10-20T11:18:13;100011.38;;;12.93;76.59
15817;BME280;8009;50.070;8.232;2022-10-20T11:20:51;100012.50;;;13.12;76.14
15817;BME280;8009;50.070;8.232;2022-10-20T11:23:38;100010.97;;;12.98;76.07
15817;BME280;8009;50.070;8.232;2022-10-20T11:26:17;100017.50;;;12.96;75.90
15817;BME280;8009;50.070;8.232;2022-10-20T11:28:51;100016.66;;;12.95;75.90
15817;BME280;8009;50.070;8.232;2022-10-20T11:31:25;100019.78;;;12.90;76.52
15817;BME280;8009;50.070;8.232;2022-10-20T11:34:02;100023.34;;;12.91;76.26
15817;BME280;8009;50.070;8.232;2022-10-20T11:36:36;100019.63;;;13.24;75.41
15817;BME280;8009;50.070;8.232;2022-10-20T11:39:14;100028.59;;;13.76;74.08
15817;BME280;8009;50.070;8.232;2022-10-20T11:41:47;100035.19;;;13.74;74.40
15817;BME280;8009;50.070;8.232;2022-10-20T11:44:24;100028.94;;;13.93;74.67
15817;BME280;8009;50.070;8.232;2022-10-20T11:46:57;100027.72;;;13.45;75.60
15817;BME280;8009;50.070;8.232;2022-10-20T11:49:27;100035.63;;;13.16;76.01
15817;BME280;8009;50.070;8.232;2022-10-20T11:52:21;100028.63;;;13.25;76.85
15817;BME280;8009;50.070;8.232;2022-10-20T11:55:06;100027.50;;;13.16;77.52
15817;BME280;8009;50.070;8.232;2022-10-20T11:57:49;100036.22;;;13.20;76.86
15817;BME280;8009;50.070;8.232;2022-10-20T12:00:33;100034.16;;;13.23;76.88
15817;BME280;8009;50.070;8.232;2022-10-20T12:06:22;100032.91;;;13.16;78.14
15817;BME280;8009;50.070;8.232;2022-10-20T12:09:09;100029.59;;;13.12;77.81
15817;BME280;8009;50.070;8.232;2022-10-20T12:11:47;100026.44;;;13.07;78.41
15817;BME280;8009;50.070;8.232;2022-10-20T12:14:26;100020.50;;;13.13;79.12
15817;BME280;8009;50.070;8.232;2022-10-20T12:17:12;100015.84;;;13.04;78.59
15817;BME280;8009;50.070;8.232;2022-10-20T12:19:41;100021.56;;;13.01;79.19
15817;BME280;8009;50.070;8.232;2022-10-20T12:22:38;100010.84;;;13.00;79.08
15817;BME280;8009;50.070;8.232;2022-10-20T12:25:17;100007.88;;;13.03;79.92
15817;BME280;8009;50.070;8.232;2022-10-20T12:30:53;100003.97;;;12.96;78.87
15817;BME280;8009;50.070;8.232;2022-10-20T12:33:37;100009.91;;;12.89;78.93
15817;BME280;8009;50.070;8.232;2022-10-20T12:36:22;100012.75;;;12.88;78.40
15817;BME280;8009;50.070;8.232;2022-10-20T12:39:12;100016.47;;;12.87;79.03
15817;BME280;8009;50.070;8.232;2022-10-20T12:41:45;100004.03;;;12.84;79.00
15817;BME280;8009;50.070;8.232;2022-10-20T12:44:22;100002.81;;;12.77;79.34
15817;BME280;8009;50.070;8.232;2022-10-20T12:46:53;99997.00;;;12.82;79.40
15817;BME280;8009;50.070;8.232;2022-10-20T12:49:28;100004.63;;;12.88;79.23
15817;BME280;8009;50.070;8.232;2022-10-20T12:51:58;99999.84;;;12.80;79.68
15817;BME280;8009;50.070;8.232;2022-10-20T12:54:32;100000.66;;;12.92;79.43
15817;BME280;8009;50.070;8.232;2022-10-20T12:57:21;99998.81;;;12.92;79.79
15817;BME280;8009;50.070;8.232;2022-10-20T12:59:53;99983.44;;;12.82;80.13
15817;BME280;8009;50.070;8.232;2022-10-20T13:02:42;99979.03;;;12.81;80.65
15817;BME280;8009;50.070;8.232;2022-10-20T13:05:45;99968.53;;;12.87;80.39
15817;BME280;8009;50.070;8.232;2022-10-20T13:08:26;99952.53;;;12.84;80.70
15817;BME280;8009;50.070;8.232;2022-10-20T13:10:56;99955.56;;;12.70;81.50
15817;BME280;8009;50.070;8.232;2022-10-20T13:13:40;99951.81;;;12.82;81.77
15817;BME280;8009;50.070;8.232;2022-10-20T13:16:14;99959.94;;;12.82;82.09
15817;BME280;8009;50.070;8.232;2022-10-20T13:18:47;99952.69;;;12.83;82.65
15817;BME280;8009;50.070;8.232;2022-10-20T13:21:30;99959.34;;;12.79;82.10
15817;BME280;8009;50.070;8.232;2022-10-20T13:24:14;99940.44;;;12.67;82.81
15817;BME280;8009;50.070;8.232;2022-10-20T13:26:48;99954.72;;;12.90;83.37
15817;BME280;8009;50.070;8.232;2022-10-20T13:29:21;99951.28;;;12.88;83.71
15817;BME280;8009;50.070;8.232;2022-10-20T13:32:08;99948.13;;;12.83;84.29
15817;BME280;8009;50.070;8.232;2022-10-20T13:34:46;99940.59;;;12.87;83.74
15817;BME280;8009;50.070;8.232;2022-10-20T13:37:28;99930.84;;;12.84;83.77